createdAt,value
2022-07-28T00:00:47.892Z,0.00
2022-07-28T00:01:47.965Z,0.00
2022-07-28T00:02:47.983Z,0.00
2022-07-28T00:03:47.892Z,0.00
2022-07-28T00:04:47.898Z,0.00
2022-07-28T00:05:47.898Z,0.00
2022-07-28T00:06:47.895Z,0.00
2022-07-28T00:07:47.898Z,0.00
2022-07-28T00:08:47.898Z,0.00
2022-07-28T00:09:47.900Z,0.00
2022-07-28T00:10:47.898Z,0.00
2022-07-28T00:11:50.352Z,0.00
2022-07-28T00:12:47.902Z,0.00
2022-07-28T00:13:47.898Z,0.00
2022-07-28T00:14:47.902Z,0.00
2022-07-28T00:15:47.963Z,0.00
2022-07-28T00:16:47.970Z,0.00
2022-07-28T00:17:47.906Z,0.00
2022-07-28T00:18:47.903Z,0.00
2022-07-28T00:19:47.910Z,0.00
2022-07-28T00:20:47.908Z,0.00
2022-07-28T00:21:47.907Z,0.00
2022-07-28T00:22:47.908Z,0.00
2022-07-28T00:23:47.908Z,0.00
2022-07-28T00:24:48.442Z,0.00
2022-07-28T00:25:47.914Z,0.00
2022-07-28T00:26:47.911Z,0.00
2022-07-28T00:27:47.910Z,0.00
2022-07-28T00:28:47.908Z,0.00
2022-07-28T00:29:51.076Z,0.00
2022-07-28T00:30:47.912Z,0.00
2022-07-28T00:31:47.943Z,0.00
2022-07-28T00:32:47.921Z,0.00
2022-07-28T00:33:47.915Z,0.00
2022-07-28T00:34:47.921Z,0.00
2022-07-28T00:35:48.683Z,0.00
2022-07-28T00:36:47.915Z,0.00
2022-07-28T00:37:47.924Z,0.00
2022-07-28T00:38:48.848Z,0.00
2022-07-28T00:39:47.911Z,0.00
2022-07-28T00:40:47.915Z,0.00
2022-07-28T00:41:47.917Z,0.00
2022-07-28T00:42:47.923Z,0.00
2022-07-28T00:43:47.926Z,0.00
2022-07-28T00:44:47.920Z,0.00
2022-07-28T00:45:47.926Z,0.00
2022-07-28T00:46:48.061Z,0.00
2022-07-28T00:47:47.924Z,0.00
2022-07-28T00:48:47.958Z,0.00
2022-07-28T00:49:47.930Z,0.00
2022-07-28T00:50:47.926Z,0.00
2022-07-28T00:51:47.929Z,0.00
2022-07-28T00:52:47.928Z,0.00
2022-07-28T00:53:47.927Z,0.00
2022-07-28T00:54:47.927Z,0.00
2022-07-28T00:56:02.711Z,0.00
2022-07-28T00:56:47.932Z,0.00
2022-07-28T00:57:47.935Z,0.00
2022-07-28T00:58:47.930Z,0.00
2022-07-28T00:59:47.932Z,0.00
2022-07-28T01:00:47.930Z,0.00
2022-07-28T01:01:48.083Z,0.00
2022-07-28T01:02:48.069Z,0.00
2022-07-28T01:03:47.934Z,0.00
2022-07-28T01:04:47.932Z,0.00
2022-07-28T01:05:47.935Z,0.00
2022-07-28T01:06:47.937Z,0.00
2022-07-28T01:07:47.938Z,0.00
2022-07-28T01:08:47.939Z,0.00
2022-07-28T01:09:47.944Z,0.00
2022-07-28T01:10:47.945Z,0.00
2022-07-28T01:11:47.938Z,0.00
2022-07-28T01:12:47.938Z,0.00
2022-07-28T01:13:47.941Z,0.00
2022-07-28T01:14:47.941Z,0.00
2022-07-28T01:15:47.989Z,0.00
2022-07-28T01:16:47.942Z,0.00
2022-07-28T01:17:47.943Z,0.00
2022-07-28T01:18:47.942Z,0.00
2022-07-28T01:19:47.945Z,0.00
2022-07-28T01:20:48.052Z,0.00
2022-07-28T01:21:47.948Z,0.00
2022-07-28T01:22:47.946Z,0.00
2022-07-28T01:23:47.951Z,0.00
2022-07-28T01:24:47.946Z,0.00
2022-07-28T01:25:48.679Z,0.00
2022-07-28T01:26:47.951Z,0.00
2022-07-28T01:27:47.952Z,0.00
2022-07-28T01:28:47.952Z,0.00
2022-07-28T01:29:47.949Z,0.00
2022-07-28T01:30:48.024Z,0.00
2022-07-28T01:31:48.041Z,0.00
2022-07-28T01:32:47.955Z,0.00
2022-07-28T01:33:47.983Z,0.00
2022-07-28T01:34:47.952Z,0.00
2022-07-28T01:35:47.961Z,0.00
2022-07-28T01:36:47.953Z,0.00
2022-07-28T01:37:47.956Z,0.00
2022-07-28T01:38:47.958Z,0.00
2022-07-28T01:39:47.955Z,0.00
2022-07-28T01:40:48.411Z,0.00
2022-07-28T01:41:47.960Z,0.00
2022-07-28T01:42:47.967Z,0.00
2022-07-28T01:43:47.960Z,0.00
2022-07-28T01:44:47.962Z,0.00
2022-07-28T01:45:47.957Z,0.00
2022-07-28T01:46:48.066Z,0.00
2022-07-28T01:47:47.961Z,0.00
2022-07-28T01:48:48.017Z,0.00
2022-07-28T01:49:47.972Z,0.00
2022-07-28T01:50:47.957Z,0.00
2022-07-28T01:51:47.959Z,0.00
2022-07-28T01:52:47.963Z,0.00
2022-07-28T01:53:47.963Z,0.00
2022-07-28T01:54:47.961Z,0.00
2022-07-28T01:55:47.961Z,0.00
2022-07-28T01:56:47.966Z,0.00
2022-07-28T01:57:47.969Z,0.00
2022-07-28T01:58:47.963Z,0.00
2022-07-28T01:59:47.967Z,0.00
2022-07-28T02:00:47.963Z,0.00
2022-07-28T02:01:48.068Z,0.00
2022-07-28T02:02:47.966Z,0.00
2022-07-28T02:03:47.966Z,0.00
2022-07-28T02:04:48.007Z,0.00
2022-07-28T02:06:30.518Z,0.00
2022-07-28T02:16:03.950Z,0.00
2022-07-28T02:17:03.854Z,0.00
2022-07-28T02:18:03.862Z,0.00
2022-07-28T02:20:16.458Z,0.00
2022-07-28T02:21:16.453Z,0.00
2022-07-28T02:22:16.463Z,0.00
2022-07-28T02:23:16.464Z,0.00
2022-07-28T02:24:17.017Z,0.00
2022-07-28T02:25:16.452Z,0.00
2022-07-28T02:26:16.463Z,0.00
2022-07-28T02:27:16.466Z,0.00
2022-07-28T02:28:16.459Z,0.00
2022-07-28T02:29:40.588Z,0.00
2022-07-28T02:30:16.463Z,0.00
2022-07-28T02:31:16.629Z,0.00
2022-07-28T02:32:26.818Z,0.00
2022-07-28T02:33:16.461Z,0.00
2022-07-28T02:34:16.769Z,0.00
2022-07-28T02:35:16.464Z,0.00
2022-07-28T02:40:19.967Z,0.00
2022-07-28T02:41:19.960Z,0.00
2022-07-28T02:42:19.962Z,0.00
2022-07-28T02:43:19.963Z,0.00
2022-07-28T02:44:19.968Z,4.00
2022-07-28T02:45:19.963Z,4.00
2022-07-28T02:46:20.065Z,0.00
2022-07-28T02:47:19.966Z,0.00
2022-07-28T02:48:19.969Z,4.00
2022-07-28T02:49:20.028Z,4.00
2022-07-28T02:50:19.966Z,4.00
2022-07-28T02:51:19.972Z,4.00
2022-07-28T02:52:19.969Z,8.00
2022-07-28T02:54:07.529Z,8.00
2022-07-28T02:55:07.524Z,8.00
2022-07-28T02:57:00.084Z,8.00
2022-07-28T02:58:00.093Z,12.00
2022-07-28T02:59:00.087Z,12.00
2022-07-28T03:00:00.098Z,12.00
2022-07-28T03:01:00.259Z,16.00
2022-07-28T03:02:00.212Z,20.00
2022-07-28T03:03:00.089Z,24.00
2022-07-28T03:04:00.103Z,24.00
2022-07-28T03:05:00.213Z,28.00
2022-07-28T03:06:00.097Z,32.00
2022-07-28T03:07:00.094Z,32.00
2022-07-28T03:08:00.134Z,36.00
2022-07-28T03:09:00.100Z,40.00
2022-07-28T03:10:00.104Z,48.00
2022-07-28T03:11:00.097Z,48.00
2022-07-28T03:12:00.095Z,56.00
2022-07-28T03:14:17.709Z,72.00
2022-07-28T03:15:17.702Z,76.00
2022-07-28T03:16:17.774Z,80.00
2022-07-28T03:17:17.772Z,92.00
2022-07-28T03:18:17.709Z,96.00
2022-07-28T03:19:17.704Z,108.00
2022-07-28T03:20:17.709Z,116.00
2022-07-28T03:21:17.708Z,124.00
2022-07-28T03:22:17.710Z,132.00
2022-07-28T03:23:17.706Z,144.00
2022-07-28T03:24:17.705Z,152.00
2022-07-28T03:25:17.705Z,160.00
2022-07-28T03:26:17.707Z,172.00
2022-07-28T03:27:17.713Z,184.00
2022-07-28T03:28:17.717Z,196.00
2022-07-28T03:29:17.709Z,208.00
2022-07-28T03:30:17.711Z,220.00
2022-07-28T03:31:17.768Z,236.00
2022-07-28T03:32:17.711Z,248.00
2022-07-28T03:33:17.709Z,260.00
2022-07-28T03:34:17.893Z,276.00
2022-07-28T03:35:17.713Z,288.00
2022-07-28T03:36:17.729Z,300.00
2022-07-28T03:37:17.718Z,312.00
2022-07-28T03:38:17.997Z,324.00
2022-07-28T03:39:17.712Z,344.00
2022-07-28T03:40:17.715Z,356.00
2022-07-28T03:41:17.716Z,372.00
2022-07-28T03:42:17.714Z,384.00
2022-07-28T03:43:17.716Z,400.00
2022-07-28T03:44:27.995Z,412.00
2022-07-28T03:45:17.717Z,428.00
2022-07-28T03:46:17.751Z,440.00
2022-07-28T03:47:17.714Z,456.00
2022-07-28T03:48:17.720Z,468.00
2022-07-28T03:49:17.772Z,484.00
2022-07-28T03:50:17.723Z,500.00
2022-07-28T03:51:17.716Z,508.00
2022-07-28T03:52:17.721Z,524.00
2022-07-28T03:53:17.716Z,536.00
2022-07-28T03:54:17.789Z,552.00
2022-07-28T03:55:17.718Z,568.00
2022-07-28T03:56:17.724Z,576.00
2022-07-28T03:57:17.721Z,592.00
2022-07-28T03:58:17.718Z,604.00
2022-07-28T03:59:17.722Z,616.00
2022-07-28T04:00:17.721Z,628.00
2022-07-28T04:01:17.808Z,644.00
2022-07-28T04:02:17.825Z,656.00
2022-07-28T04:03:35.052Z,668.00
2022-07-28T04:04:18.160Z,680.00
2022-07-28T04:05:17.723Z,692.00
2022-07-28T04:06:17.728Z,704.00
2022-07-28T04:07:17.722Z,720.00
2022-07-28T04:08:17.729Z,728.00
2022-07-28T04:09:17.724Z,740.00
2022-07-28T04:10:17.728Z,752.00
2022-07-28T04:11:17.730Z,764.00
2022-07-28T04:12:17.724Z,776.00
2022-07-28T04:13:17.724Z,788.00
2022-07-28T04:14:18.251Z,800.00
2022-07-28T04:15:17.723Z,812.00
2022-07-28T04:16:17.800Z,820.00
2022-07-28T04:17:17.728Z,832.00
2022-07-28T04:18:17.730Z,844.00
2022-07-28T04:19:17.727Z,852.00
2022-07-28T04:20:17.731Z,864.00
2022-07-28T04:21:17.722Z,876.00
2022-07-28T04:22:17.726Z,888.00
2022-07-28T04:23:17.731Z,900.00
2022-07-28T04:24:17.999Z,908.00
2022-07-28T04:25:17.722Z,920.00
2022-07-28T04:26:17.728Z,932.00
2022-07-28T04:27:17.727Z,940.00
2022-07-28T04:28:17.728Z,952.00
2022-07-28T04:29:23.367Z,960.00
2022-07-28T04:30:17.732Z,972.00
2022-07-28T04:31:17.780Z,980.00
2022-07-28T04:32:17.728Z,996.00
2022-07-28T04:33:17.729Z,1004.00
2022-07-28T04:34:17.947Z,1012.00
2022-07-28T04:35:17.899Z,1020.00
2022-07-28T04:36:17.734Z,1032.00
2022-07-28T04:37:17.735Z,1044.00
2022-07-28T04:38:17.738Z,1056.00
2022-07-28T04:39:17.735Z,1064.00
2022-07-28T04:40:17.733Z,1076.00
2022-07-28T04:41:17.735Z,1084.00
2022-07-28T04:42:17.731Z,1100.00
2022-07-28T04:43:17.737Z,1108.00
2022-07-28T04:44:18.158Z,1120.00
2022-07-28T04:45:17.732Z,1132.00
2022-07-28T04:46:17.831Z,1144.00
2022-07-28T04:47:17.784Z,1152.00
2022-07-28T04:48:17.734Z,1168.00
2022-07-28T04:49:17.843Z,1176.00
2022-07-28T04:50:17.736Z,1188.00
2022-07-28T04:51:17.737Z,1196.00
2022-07-28T04:52:17.740Z,1204.00
2022-07-28T04:53:17.731Z,1216.00
2022-07-28T04:54:20.845Z,1224.00
2022-07-28T04:55:17.739Z,1232.00
2022-07-28T04:56:17.740Z,1240.00
2022-07-28T04:57:17.737Z,1248.00
2022-07-28T04:58:17.736Z,1256.00
2022-07-28T04:59:17.740Z,1260.00
2022-07-28T05:00:17.786Z,1268.00
2022-07-28T05:01:17.793Z,1276.00
2022-07-28T05:02:17.742Z,1284.00
2022-07-28T05:03:17.738Z,1292.00
2022-07-28T05:04:18.295Z,1296.00
2022-07-28T05:05:17.903Z,1300.00
2022-07-28T05:06:17.742Z,1308.00
2022-07-28T05:07:17.741Z,1312.00
2022-07-28T05:08:17.743Z,1320.00
2022-07-28T05:09:17.744Z,1328.00
2022-07-28T05:10:17.751Z,1332.00
2022-07-28T05:11:17.737Z,1340.00
2022-07-28T05:12:17.747Z,1344.00
2022-07-28T05:13:17.739Z,1352.00
2022-07-28T05:14:17.885Z,1356.00
2022-07-28T05:15:17.747Z,1360.00
2022-07-28T05:16:17.819Z,1364.00
2022-07-28T05:17:17.744Z,1376.00
2022-07-28T05:18:17.743Z,1384.00
2022-07-28T05:19:17.748Z,1384.00
2022-07-28T05:20:17.745Z,1384.00
2022-07-28T05:21:22.462Z,1392.00
2022-07-28T05:22:17.744Z,1404.00
2022-07-28T05:23:17.789Z,1424.00
2022-07-28T05:24:17.984Z,1440.00
2022-07-28T05:25:17.745Z,1456.00
2022-07-28T05:26:17.750Z,1472.00
2022-07-28T05:27:17.751Z,1488.00
2022-07-28T05:28:17.748Z,1500.00
2022-07-28T05:29:17.746Z,1520.00
2022-07-28T05:30:17.743Z,1536.00
2022-07-28T05:31:17.817Z,1556.00
2022-07-28T05:32:18.239Z,1576.00
2022-07-28T05:33:17.748Z,1592.00
2022-07-28T05:34:17.906Z,1612.00
2022-07-28T05:35:17.750Z,1636.00
2022-07-28T05:36:17.751Z,1652.00
2022-07-28T05:37:17.754Z,1668.00
2022-07-28T05:38:17.753Z,1680.00
2022-07-28T05:39:17.750Z,1692.00
2022-07-28T05:40:17.757Z,1704.00
2022-07-28T05:41:17.751Z,1712.00
2022-07-28T05:42:17.753Z,1720.00
2022-07-28T05:43:17.755Z,1732.00
2022-07-28T05:44:17.867Z,1740.00
2022-07-28T05:45:18.038Z,1752.00
2022-07-28T05:46:17.833Z,1772.00
2022-07-28T05:47:17.803Z,1792.00
2022-07-28T05:48:17.756Z,1816.00
2022-07-28T05:49:17.838Z,1840.00
2022-07-28T05:50:17.869Z,1884.00
2022-07-28T05:51:17.757Z,1928.00
2022-07-28T05:52:17.759Z,1980.00
2022-07-28T05:53:17.759Z,2032.00
2022-07-28T05:54:17.863Z,2092.00
2022-07-28T05:55:17.764Z,2136.00
2022-07-28T05:56:17.761Z,2180.00
2022-07-28T05:57:17.759Z,2220.00
2022-07-28T05:58:17.763Z,2264.00
2022-07-28T05:59:17.760Z,2292.00
2022-07-28T06:00:17.765Z,2312.00
2022-07-28T06:01:17.816Z,2304.00
2022-07-28T06:02:17.865Z,2300.00
2022-07-28T06:03:17.761Z,2272.00
2022-07-28T06:04:26.439Z,2248.00
2022-07-28T06:05:17.763Z,2224.00
2022-07-28T06:06:17.768Z,2208.00
2022-07-28T06:07:17.764Z,2196.00
2022-07-28T06:08:17.762Z,2192.00
2022-07-28T06:09:17.759Z,2200.00
2022-07-28T06:10:17.764Z,2196.00
2022-07-28T06:11:18.037Z,2196.00
2022-07-28T06:12:17.768Z,2204.00
2022-07-28T06:13:17.764Z,2212.00
2022-07-28T06:14:18.356Z,2228.00
2022-07-28T06:15:17.771Z,2244.00
2022-07-28T06:16:17.857Z,2276.00
2022-07-28T06:17:17.774Z,2308.00
2022-07-28T06:18:17.781Z,2352.00
2022-07-28T06:19:17.770Z,2396.00
2022-07-28T06:20:17.773Z,2448.00
2022-07-28T06:21:17.769Z,2504.00
2022-07-28T06:22:17.774Z,2572.00
2022-07-28T06:23:17.772Z,2636.00
2022-07-28T06:24:18.027Z,2696.00
2022-07-28T06:25:17.771Z,2772.00
2022-07-28T06:26:17.772Z,2852.00
2022-07-28T06:27:17.776Z,2924.00
2022-07-28T06:28:17.777Z,3012.00
2022-07-28T06:29:17.772Z,3092.00
2022-07-28T06:30:17.776Z,3156.00
2022-07-28T06:31:17.805Z,3224.00
2022-07-28T06:32:17.787Z,3300.00
2022-07-28T06:33:17.779Z,3376.00
2022-07-28T06:34:17.888Z,3440.00
2022-07-28T06:35:17.783Z,3512.00
2022-07-28T06:36:17.805Z,3604.00
2022-07-28T06:37:17.781Z,3688.00
2022-07-28T06:38:17.788Z,3772.00
2022-07-28T06:39:17.783Z,3872.00
2022-07-28T06:40:17.790Z,3984.00
2022-07-28T06:41:17.781Z,4108.00
2022-07-28T06:42:17.790Z,4240.00
2022-07-28T06:43:17.799Z,4364.00
2022-07-28T06:44:18.095Z,4488.00
2022-07-28T06:45:19.809Z,4608.00
2022-07-28T06:46:17.832Z,4716.00
2022-07-28T06:47:17.936Z,4840.00
2022-07-28T06:48:17.791Z,4964.00
2022-07-28T06:49:18.597Z,5052.00
2022-07-28T06:50:27.027Z,5172.00
2022-07-28T06:51:17.792Z,5280.00
2022-07-28T06:52:17.796Z,5380.00
2022-07-28T06:53:17.797Z,5460.00
2022-07-28T06:54:18.648Z,5564.00
2022-07-28T06:55:17.800Z,5628.00
2022-07-28T06:56:17.797Z,5752.00
2022-07-28T06:57:17.802Z,5908.00
2022-07-28T06:58:17.801Z,6048.00
2022-07-28T06:59:18.005Z,6164.00
2022-07-28T07:00:17.816Z,6296.00
2022-07-28T07:01:17.882Z,6488.00
2022-07-28T07:02:17.807Z,6696.00
2022-07-28T07:03:17.805Z,6916.00
2022-07-28T07:04:18.401Z,7120.00
2022-07-28T07:05:17.811Z,7216.00
2022-07-28T07:06:17.809Z,7276.00
2022-07-28T07:07:17.810Z,7268.00
2022-07-28T07:08:17.827Z,7232.00
2022-07-28T07:09:17.813Z,7160.00
2022-07-28T07:10:17.822Z,7080.00
2022-07-28T07:11:17.815Z,7052.00
2022-07-28T07:12:17.822Z,6984.00
2022-07-28T07:13:17.816Z,6896.00
2022-07-28T07:14:18.359Z,6752.00
2022-07-28T07:15:17.820Z,6720.00
2022-07-28T07:16:17.916Z,6604.00
2022-07-28T07:17:17.819Z,6576.00
2022-07-28T07:18:17.824Z,6696.00
2022-07-28T07:19:17.827Z,6900.00
2022-07-28T07:20:18.206Z,6960.00
2022-07-28T07:21:17.827Z,7100.00
2022-07-28T07:22:17.832Z,7124.00
2022-07-28T07:23:17.829Z,7172.00
2022-07-28T07:24:18.072Z,7248.00
2022-07-28T07:25:17.840Z,7428.00
2022-07-28T07:26:17.838Z,7616.00
2022-07-28T07:27:17.837Z,7748.00
2022-07-28T07:28:17.846Z,7820.00
2022-07-28T07:29:17.843Z,7928.00
2022-07-28T07:30:17.841Z,8052.00
2022-07-28T07:31:17.888Z,8156.00
2022-07-28T07:32:17.843Z,8292.00
2022-07-28T07:33:17.849Z,8292.00
2022-07-28T07:34:18.091Z,8292.00
2022-07-28T07:35:17.852Z,8196.00
2022-07-28T07:36:17.854Z,8304.00
2022-07-28T07:37:17.853Z,8300.00
2022-07-28T07:38:17.855Z,8460.00
2022-07-28T07:39:17.858Z,8700.00
2022-07-28T07:40:17.864Z,8940.00
2022-07-28T07:41:17.860Z,9000.00
2022-07-28T07:42:17.861Z,9212.00
2022-07-28T07:43:17.869Z,9468.00
2022-07-28T07:44:18.163Z,9888.00
2022-07-28T07:45:17.872Z,9968.00
2022-07-28T07:46:17.933Z,10224.00
2022-07-28T07:47:17.924Z,10612.00
2022-07-28T07:48:17.871Z,10928.00
2022-07-28T07:49:17.931Z,11376.00
2022-07-28T07:50:17.876Z,11344.00
2022-07-28T07:51:17.884Z,11788.00
2022-07-28T07:52:17.882Z,12256.00
2022-07-28T07:53:17.883Z,13076.00
2022-07-28T07:54:18.126Z,13384.00
2022-07-28T07:55:17.890Z,14540.00
2022-07-28T07:56:17.893Z,18336.00
2022-07-28T07:57:17.900Z,12688.00
2022-07-28T07:58:17.900Z,16928.00
2022-07-28T07:59:17.896Z,34688.00
2022-07-28T08:00:29.246Z,45664.00
2022-07-28T08:01:17.979Z,51328.00
2022-07-28T08:02:17.907Z,45952.00
2022-07-28T08:03:22.425Z,52512.00
2022-07-28T08:04:18.342Z,47680.00
2022-07-28T08:05:17.918Z,46080.00
2022-07-28T08:06:17.921Z,44032.00
2022-07-28T08:07:17.925Z,49728.00
2022-07-28T08:08:17.948Z,46688.00
2022-07-28T08:09:17.934Z,44544.00
2022-07-28T08:10:17.935Z,42368.00
2022-07-28T08:11:17.944Z,43264.00
2022-07-28T08:12:17.945Z,41696.00
2022-07-28T08:13:17.946Z,43872.00
2022-07-28T08:14:18.452Z,44928.00
2022-07-28T08:15:17.958Z,43072.00
2022-07-28T08:16:18.049Z,38848.00
2022-07-28T08:17:21.004Z,40544.00
2022-07-28T08:18:17.967Z,39552.00
2022-07-28T08:19:17.981Z,51296.00
2022-07-28T08:20:17.980Z,55552.00
2022-07-28T08:21:17.989Z,53920.00
2022-07-28T08:22:17.992Z,49440.00
2022-07-28T08:23:21.582Z,50208.00
2022-07-28T08:24:32.413Z,53952.00
2022-07-28T08:25:18.020Z,54016.00
2022-07-28T08:26:18.015Z,54688.00
2022-07-28T08:27:18.026Z,28288.00
2022-07-28T08:28:18.033Z,30944.00
2022-07-28T08:29:18.040Z,32256.00
2022-07-28T08:30:21.170Z,35712.00
2022-07-28T08:31:18.137Z,42016.00
2022-07-28T08:32:18.055Z,42752.00
2022-07-28T08:33:18.071Z,41312.00
2022-07-28T08:34:31.385Z,41888.00
2022-07-28T08:35:33.113Z,45600.00
2022-07-28T08:36:18.092Z,43424.00
2022-07-28T08:37:18.098Z,48544.00
2022-07-28T08:38:18.105Z,58432.00
2022-07-28T08:39:18.114Z,61760.00
2022-07-28T08:40:18.121Z,49856.00
2022-07-28T08:41:18.135Z,51168.00
2022-07-28T08:42:18.141Z,56928.00
2022-07-28T08:43:18.149Z,58400.00
2022-07-28T08:44:18.433Z,70240.00
2022-07-28T08:45:18.168Z,58432.00
2022-07-28T08:46:18.244Z,49760.00
2022-07-28T08:47:18.184Z,46496.00
2022-07-28T08:48:18.201Z,51008.00
2022-07-28T08:49:18.316Z,45920.00
2022-07-28T08:50:18.217Z,39232.00
2022-07-28T08:51:18.236Z,44832.00
2022-07-28T08:52:18.237Z,38944.00
2022-07-28T08:53:18.250Z,35296.00
2022-07-28T08:54:18.259Z,36192.00
2022-07-28T08:55:19.727Z,27104.00
2022-07-28T08:56:18.283Z,41152.00
2022-07-28T08:57:18.297Z,32192.00
2022-07-28T08:58:18.301Z,26112.00
2022-07-28T08:59:18.318Z,22528.00
2022-07-28T09:00:18.330Z,26848.00
2022-07-28T09:01:18.412Z,31648.00
2022-07-28T09:02:18.538Z,27680.00
2022-07-28T09:03:18.440Z,35808.00
2022-07-28T09:04:18.590Z,32448.00
2022-07-28T09:05:18.391Z,25248.00
2022-07-28T09:06:18.391Z,23776.00
2022-07-28T09:07:18.405Z,40224.00
2022-07-28T09:08:18.415Z,25600.00
2022-07-28T09:09:18.432Z,38240.00
2022-07-28T09:10:18.446Z,33440.00
2022-07-28T09:11:18.453Z,44800.00
2022-07-28T09:12:18.462Z,46368.00
2022-07-28T09:13:18.477Z,29984.00
2022-07-28T09:14:18.483Z,28608.00
2022-07-28T09:15:18.496Z,35520.00
2022-07-28T09:16:18.578Z,44384.00
2022-07-28T09:17:18.519Z,50144.00
2022-07-28T09:18:18.527Z,47456.00
2022-07-28T09:19:18.541Z,47232.00
2022-07-28T09:20:18.551Z,54144.00
2022-07-28T09:21:18.570Z,65440.00
2022-07-28T09:22:18.573Z,63840.00
2022-07-28T09:23:42.026Z,53632.00
2022-07-28T09:24:18.611Z,64416.00
2022-07-28T09:25:18.614Z,36896.00
2022-07-28T09:26:18.622Z,57888.00
2022-07-28T09:27:18.639Z,62720.00
2022-07-28T09:28:20.351Z,65024.00
2022-07-28T09:29:18.694Z,71744.00
2022-07-28T09:30:18.698Z,76704.00
2022-07-28T09:31:18.853Z,80160.00
2022-07-28T09:32:18.706Z,55616.00
2022-07-28T09:33:42.474Z,32032.00
2022-07-28T09:34:18.736Z,32896.00
2022-07-28T09:35:18.752Z,41568.00
2022-07-28T09:36:18.765Z,39232.00
2022-07-28T09:37:23.358Z,41024.00
2022-07-28T09:38:18.793Z,42272.00
2022-07-28T09:39:18.813Z,44192.00
2022-07-28T09:40:22.254Z,49696.00
2022-07-28T09:41:19.133Z,65024.00
2022-07-28T09:42:18.852Z,73088.00
2022-07-28T09:43:18.864Z,76928.00
2022-07-28T09:44:18.882Z,63872.00
2022-07-28T09:45:23.718Z,72352.00
2022-07-28T09:46:19.167Z,71424.00
2022-07-28T09:47:19.078Z,71008.00
2022-07-28T09:48:19.239Z,72736.00
2022-07-28T09:49:19.094Z,69280.00
2022-07-28T09:50:18.978Z,63904.00
2022-07-28T09:51:18.991Z,69024.00
2022-07-28T09:52:19.011Z,75424.00
2022-07-28T09:53:19.022Z,70208.00
2022-07-28T09:54:19.519Z,60320.00
2022-07-28T09:55:19.067Z,51168.00
2022-07-28T09:56:19.078Z,41376.00
2022-07-28T09:57:19.094Z,50176.00
2022-07-28T09:58:19.109Z,48448.00
2022-07-28T09:59:19.131Z,43456.00
2022-07-28T10:00:19.140Z,56768.00
2022-07-28T10:01:19.213Z,44832.00
2022-07-28T10:02:19.329Z,45472.00
2022-07-28T10:03:19.271Z,58848.00
2022-07-28T10:04:19.716Z,64064.00
2022-07-28T10:05:19.240Z,63616.00
2022-07-28T10:06:19.249Z,68960.00
2022-07-28T10:07:19.275Z,71296.00
2022-07-28T10:08:19.283Z,77344.00
2022-07-28T10:09:19.308Z,83296.00
2022-07-28T10:10:19.322Z,75200.00
2022-07-28T10:11:19.348Z,76512.00
2022-07-28T10:12:19.360Z,90432.00
2022-07-28T10:13:19.377Z,85696.00
2022-07-28T10:14:19.396Z,54464.00
2022-07-28T10:15:19.426Z,83360.00
2022-07-28T10:16:19.505Z,85056.00
2022-07-28T10:17:19.456Z,95680.00
2022-07-28T10:18:19.473Z,91328.00
2022-07-28T10:19:19.538Z,84448.00
2022-07-28T10:20:19.507Z,69760.00
2022-07-28T10:21:19.530Z,67424.00
2022-07-28T10:22:19.551Z,74400.00
2022-07-28T10:23:19.572Z,75744.00
2022-07-28T10:24:19.591Z,47264.00
2022-07-28T10:25:19.610Z,72480.00
2022-07-28T10:26:19.630Z,72992.00
2022-07-28T10:27:19.657Z,68640.00
2022-07-28T10:28:19.674Z,63840.00
2022-07-28T10:29:19.741Z,50560.00
2022-07-28T10:30:19.714Z,67264.00
2022-07-28T10:31:19.853Z,47392.00
2022-07-28T10:32:19.755Z,34592.00
2022-07-28T10:33:20.992Z,99360.00
2022-07-28T10:34:20.257Z,69696.00
2022-07-28T10:35:19.823Z,101216.00
2022-07-28T10:36:19.847Z,104064.00
2022-07-28T10:37:19.869Z,96032.00
2022-07-28T10:38:19.880Z,86656.00
2022-07-28T10:39:19.903Z,96800.00
2022-07-28T10:40:19.930Z,116160.00
2022-07-28T10:41:19.944Z,117664.00
2022-07-28T10:42:19.977Z,111264.00
2022-07-28T10:43:19.991Z,98496.00
2022-07-28T10:44:20.291Z,94304.00
2022-07-28T10:45:20.031Z,94048.00
2022-07-28T10:46:20.132Z,98048.00
2022-07-28T10:47:20.327Z,96576.00
2022-07-28T10:48:20.102Z,93344.00
2022-07-28T10:49:20.250Z,98016.00
2022-07-28T10:50:20.151Z,17824.00
2022-07-28T10:51:20.170Z,18816.00
2022-07-28T10:52:45.713Z,31168.00
2022-07-28T10:53:20.214Z,82784.00
2022-07-28T10:54:25.170Z,86368.00
2022-07-28T10:55:20.608Z,64128.00
2022-07-28T10:56:20.282Z,70464.00
2022-07-28T10:57:20.760Z,90208.00
2022-07-28T10:58:24.780Z,90752.00
2022-07-28T10:59:20.353Z,28128.00
2022-07-28T11:00:26.411Z,33472.00
2022-07-28T11:01:47.164Z,19328.00
2022-07-28T11:02:20.529Z,12692.00
2022-07-28T11:03:20.574Z,11940.00
2022-07-28T11:04:20.467Z,12164.00
2022-07-28T11:05:20.491Z,13240.00
2022-07-28T11:06:20.514Z,12904.00
2022-07-28T11:07:20.542Z,12880.00
2022-07-28T11:08:20.564Z,13100.00
2022-07-28T11:09:20.585Z,13096.00
2022-07-28T11:10:20.602Z,12428.00
2022-07-28T11:11:20.625Z,12944.00
2022-07-28T11:12:20.645Z,11964.00
2022-07-28T11:13:20.664Z,11160.00
2022-07-28T11:14:20.692Z,10088.00
2022-07-28T11:15:20.709Z,10564.00
2022-07-28T11:16:20.772Z,12080.00
2022-07-28T11:17:24.339Z,13132.00
2022-07-28T11:18:20.765Z,15044.00
2022-07-28T11:19:40.103Z,24960.00
2022-07-28T11:20:29.842Z,24032.00
2022-07-28T11:21:20.829Z,34464.00
2022-07-28T11:22:20.850Z,60192.00
2022-07-28T11:23:20.866Z,100992.00
2022-07-28T11:24:20.888Z,94752.00
2022-07-28T11:25:22.717Z,104896.00
2022-07-28T11:26:20.921Z,117856.00
2022-07-28T11:27:20.940Z,117120.00
2022-07-28T11:28:20.961Z,110176.00
2022-07-28T11:29:20.980Z,15460.00
2022-07-28T11:30:21.085Z,14916.00
2022-07-28T11:31:21.048Z,35520.00
2022-07-28T11:32:21.048Z,82688.00
2022-07-28T11:33:21.060Z,105984.00
2022-07-28T11:34:21.081Z,37440.00
2022-07-28T11:35:21.096Z,117088.00
2022-07-28T11:36:21.122Z,112704.00
2022-07-28T11:37:21.142Z,99040.00
2022-07-28T11:38:21.157Z,102464.00
2022-07-28T11:39:21.186Z,49216.00
2022-07-28T11:40:21.210Z,61344.00
2022-07-28T11:41:21.229Z,107264.00
2022-07-28T11:42:21.247Z,106272.00
2022-07-28T11:43:22.163Z,64288.00
2022-07-28T11:44:21.286Z,60672.00
2022-07-28T11:45:21.305Z,38688.00
2022-07-28T11:46:21.378Z,108384.00
2022-07-28T11:47:21.347Z,22368.00
2022-07-28T11:48:21.369Z,18176.00
2022-07-28T11:49:21.457Z,21120.00
2022-07-28T11:50:21.413Z,30112.00
2022-07-28T11:51:21.433Z,78464.00
2022-07-28T11:52:21.461Z,14068.00
2022-07-28T11:53:21.478Z,19232.00
2022-07-28T11:54:21.495Z,14240.00
2022-07-28T11:55:21.521Z,13828.00
2022-07-28T11:56:21.550Z,15288.00
2022-07-28T11:57:21.568Z,37888.00
2022-07-28T11:58:21.582Z,56704.00
2022-07-28T11:59:21.605Z,98976.00
2022-07-28T12:00:21.728Z,108160.00
2022-07-28T12:01:21.648Z,115872.00
2022-07-28T12:02:21.777Z,88288.00
2022-07-28T12:03:23.904Z,95296.00
2022-07-28T12:04:21.766Z,86272.00
2022-07-28T12:05:21.727Z,93856.00
2022-07-28T12:06:29.480Z,109728.00
2022-07-28T12:07:21.769Z,117120.00
2022-07-28T12:08:21.797Z,112672.00
2022-07-28T12:09:25.761Z,29888.00
2022-07-28T12:10:44.045Z,93280.00
2022-07-28T12:11:21.858Z,91936.00
2022-07-28T12:12:21.880Z,93696.00
2022-07-28T12:13:21.901Z,99744.00
2022-07-28T12:14:21.920Z,83232.00
2022-07-28T12:15:21.942Z,90016.00
2022-07-28T12:16:22.013Z,17408.00
2022-07-28T12:17:21.986Z,6376.00
2022-07-28T12:18:22.013Z,6460.00
2022-07-28T12:19:22.035Z,11492.00
2022-07-28T12:20:22.066Z,8700.00
2022-07-28T12:21:22.075Z,11400.00
2022-07-28T12:22:22.101Z,80896.00
2022-07-28T12:23:22.125Z,77216.00
2022-07-28T12:24:22.661Z,84224.00
2022-07-28T12:25:22.166Z,84224.00
2022-07-28T12:26:22.190Z,83264.00
2022-07-28T12:27:25.019Z,80320.00
2022-07-28T12:28:22.233Z,84352.00
2022-07-28T12:29:22.258Z,83392.00
2022-07-28T12:30:22.280Z,89408.00
2022-07-28T12:31:22.360Z,90016.00
2022-07-28T12:32:22.327Z,80608.00